Aérodrome :
LOGIN :

S'inscrire | Disclaimer

   EN    FR    IT 

 










Légende :    VFR   VFR Marginal   IFR   IFR Intensif   IFR Très Intensif
Visi : 
Plafond : 
>= 8 km
>= 3000ft
5 à 8 km
1000 à 3000 ft
1500m à 5 km
500 à 1000 ft
800 à 1500m
200 à 500 ft
< 800m
< 200 ft
Symboles :   Orages  Brouillard  Fortes neiges  Fortes précipitations  Vent > 20 kt
SIGMETs :   Divers  Orages  Givrage  Turbulence  Onde Orograph.  Cendres Volcan.







- Altitude de l'aérodrome : 538 ft
- Code IATA : TNF
- Voir les cartes d'approche


LFPN - Toussus Le Noble

DERNIER METAR :
  • 202200Z AUTO 00000KT CAVOK 14/09 Q1015

METARs EXPIRÉS :
  • 202130Z AUTO 00000KT CAVOK 14/09 Q1015 NOSIG
  • 202100Z AUTO 00000KT CAVOK 15/09 Q1015 NOSIG
  • 202030Z AUTO 00000KT CAVOK 17/09 Q1015 NOSIG
  • 202000Z AUTO 31004KT CAVOK 17/09 Q1014 NOSIG
  • 201930Z AUTO 31005KT CAVOK 18/09 Q1014 NOSIG

TAF TAF LFPN
Valide du 20 à 18h jusqu'au 21 à 03h UTC


201700Z 2018/2103 29008KT CAVOK
BECMG 2021/2023 VRB03KT
ATIS : +33 1 39 56 54 70
Pas de NOTAMs connus pour ce terrain.



MET'MAP, la Météo Aéronautique d'un coup d'oeil ! - Copyright ORBIFLY Décembre 2007 - Disclaimer

ORBIFLY MET'MAP TEAM :

Programmation & Développement : Alexandra Zaïnal
Conception & Développement : Baudouin d'Aumeries
Co-Programmation & Développement : Marc-Olivier Méhu
Soutien technique & logistique : Manuel Goepfert

Contact : metmap@orbifly.com




SOURCES & CREDITS :

   NOAA